createdAt,value
2022-08-17T00:01:29.482Z,38.64
2022-08-17T00:03:57.966Z,38.21
2022-08-17T00:06:28.063Z,38.76
2022-08-17T00:09:01.134Z,38.54
2022-08-17T00:11:38.340Z,38.70
2022-08-17T00:14:18.897Z,38.06
2022-08-17T00:16:56.721Z,38.20
2022-08-17T00:19:25.480Z,38.44
2022-08-17T00:22:31.423Z,38.43
2022-08-17T00:24:42.856Z,38.41
2022-08-17T00:27:09.379Z,38.09
2022-08-17T00:29:35.836Z,37.94
2022-08-17T00:33:15.710Z,37.92
2022-08-17T00:34:49.935Z,37.97
2022-08-17T00:37:16.662Z,38.16
2022-08-17T00:39:43.211Z,38.21
2022-08-17T00:42:31.143Z,38.00
2022-08-17T00:44:58.642Z,38.25
2022-08-17T00:47:25.426Z,38.12
2022-08-17T00:49:52.770Z,38.32
2022-08-17T00:52:25.375Z,38.32
2022-08-17T00:54:54.755Z,37.76
2022-08-17T00:57:26.330Z,38.14
2022-08-17T01:00:02.707Z,37.81
2022-08-17T01:02:34.304Z,37.88
2022-08-17T01:05:11.988Z,38.26
2022-08-17T01:07:39.260Z,38.04
2022-08-17T01:10:59.139Z,37.90
2022-08-17T01:12:56.786Z,37.81
2022-08-17T01:15:23.418Z,37.73
2022-08-17T01:17:50.225Z,38.20
2022-08-17T01:20:16.892Z,38.30
2022-08-17T01:22:43.523Z,37.78
2022-08-17T01:25:12.630Z,38.19
2022-08-17T01:27:39.387Z,38.07
2022-08-17T01:30:58.316Z,38.21
2022-08-17T01:32:56.538Z,37.58
2022-08-17T01:35:22.987Z,37.71
2022-08-17T01:37:49.780Z,38.21
2022-08-17T01:40:34.781Z,37.71
2022-08-17T01:43:10.484Z,37.94
2022-08-17T01:45:47.702Z,37.78
2022-08-17T01:48:14.608Z,38.13
2022-08-17T01:50:44.751Z,38.21
2022-08-17T01:53:32.369Z,37.94
2022-08-17T01:56:02.907Z,37.76
2022-08-17T01:58:29.471Z,38.17
2022-08-17T02:01:00.896Z,37.85
2022-08-17T02:03:29.454Z,38.36
2022-08-17T02:05:56.305Z,38.36
2022-08-17T02:08:39.283Z,38.17
2022-08-17T02:11:15.745Z,38.20
2022-08-17T02:13:44.027Z,38.03
2022-08-17T02:16:11.153Z,37.93
2022-08-17T02:18:37.843Z,37.99
2022-08-17T02:21:05.140Z,38.13
2022-08-17T02:23:34.575Z,38.25
2022-08-17T02:26:01.679Z,38.17
2022-08-17T02:28:28.623Z,38.31
2022-08-17T02:31:02.050Z,38.35
2022-08-17T02:33:42.048Z,38.17
2022-08-17T02:36:11.536Z,38.22
2022-08-17T02:38:39.385Z,38.46
2022-08-17T02:41:06.540Z,38.39
2022-08-17T02:43:33.055Z,38.49
2022-08-17T02:45:59.544Z,38.17
2022-08-17T02:48:31.002Z,38.33
2022-08-17T02:50:58.713Z,38.46
2022-08-17T02:53:25.710Z,38.03
2022-08-17T02:55:52.808Z,38.50
2022-08-17T02:58:29.661Z,38.05
2022-08-17T03:01:03.326Z,38.43
2022-08-17T03:03:30.021Z,38.06
2022-08-17T03:05:56.511Z,38.03
2022-08-17T03:08:23.353Z,38.18
2022-08-17T03:10:50.481Z,38.16
2022-08-17T03:13:17.559Z,38.01
2022-08-17T03:15:45.392Z,38.13
2022-08-17T03:18:19.352Z,38.23
2022-08-17T03:20:52.320Z,38.10
2022-08-17T03:23:18.797Z,38.57
2022-08-17T03:25:53.375Z,38.36
2022-08-17T03:28:20.479Z,38.08
2022-08-17T03:30:46.982Z,38.53
2022-08-17T03:33:14.284Z,38.33
2022-08-17T03:35:41.756Z,38.60
2022-08-17T03:38:10.869Z,38.62
2022-08-17T03:40:57.256Z,38.46
2022-08-17T03:43:25.211Z,38.45
2022-08-17T03:46:19.280Z,38.45
2022-08-17T03:49:14.562Z,38.94
2022-08-17T03:51:59.447Z,39.26
2022-08-17T03:54:44.355Z,39.56
2022-08-17T03:57:12.435Z,39.37
2022-08-17T03:59:39.564Z,39.66
2022-08-17T04:02:17.394Z,39.85
2022-08-17T04:04:43.886Z,40.05
2022-08-17T04:07:10.427Z,40.23
2022-08-17T04:09:36.959Z,40.32
2022-08-17T04:12:05.097Z,40.36
2022-08-17T04:14:36.703Z,40.75
2022-08-17T04:17:18.884Z,40.96
2022-08-17T04:19:46.580Z,41.07
2022-08-17T04:22:30.354Z,40.84
2022-08-17T04:24:58.740Z,41.48
2022-08-17T04:27:25.270Z,42.02
2022-08-17T04:29:55.635Z,41.88
2022-08-17T04:32:59.322Z,41.88
2022-08-17T04:35:09.924Z,42.30
2022-08-17T04:37:36.375Z,41.96
2022-08-17T04:40:22.354Z,42.20
2022-08-17T04:43:10.720Z,42.97
2022-08-17T04:45:51.322Z,43.28
2022-08-17T04:48:22.539Z,42.91
2022-08-17T04:50:50.962Z,43.15
2022-08-17T04:53:18.249Z,43.51
2022-08-17T04:55:44.701Z,43.46
2022-08-17T04:58:11.647Z,43.45
2022-08-17T05:00:39.324Z,43.51
2022-08-17T05:03:06.449Z,43.46
2022-08-17T05:05:38.563Z,43.23
2022-08-17T05:08:06.742Z,43.00
2022-08-17T05:10:36.991Z,43.13
2022-08-17T05:13:11.407Z,42.82
2022-08-17T05:15:45.190Z,42.51
2022-08-17T05:18:14.820Z,42.87
2022-08-17T05:20:41.729Z,42.32
2022-08-17T05:23:11.699Z,42.38
2022-08-17T05:25:42.169Z,42.20
2022-08-17T05:28:15.030Z,42.12
2022-08-17T05:30:43.755Z,41.79
2022-08-17T05:33:16.769Z,41.83
2022-08-17T05:35:49.524Z,41.73
2022-08-17T05:38:18.080Z,41.62
2022-08-17T05:40:45.652Z,41.52
2022-08-17T05:43:18.275Z,41.46
2022-08-17T05:46:24.986Z,41.15
2022-08-17T05:49:08.040Z,41.28
2022-08-17T05:51:59.455Z,41.12
2022-08-17T05:54:50.479Z,41.17
2022-08-17T05:57:43.570Z,41.12
2022-08-17T06:00:48.061Z,41.13
2022-08-17T06:03:25.007Z,40.85
2022-08-17T06:06:04.570Z,41.00
2022-08-17T06:09:05.764Z,41.08
2022-08-17T06:11:54.051Z,40.92
2022-08-17T06:14:47.181Z,40.74
2022-08-17T06:17:18.686Z,40.86
2022-08-17T06:19:55.992Z,40.57
2022-08-17T06:22:26.240Z,40.94
2022-08-17T06:25:10.191Z,40.74
2022-08-17T06:27:57.288Z,40.50
2022-08-17T06:30:27.110Z,40.73
2022-08-17T06:32:59.537Z,40.76
2022-08-17T06:35:42.489Z,40.51
2022-08-17T06:38:38.075Z,40.54
2022-08-17T06:41:18.166Z,40.62
2022-08-17T06:43:56.672Z,40.43
2022-08-17T06:46:33.388Z,40.33
2022-08-17T06:49:15.898Z,40.28
2022-08-17T06:52:02.890Z,40.65
2022-08-17T06:54:52.034Z,40.56
2022-08-17T06:57:25.179Z,40.41
2022-08-17T06:59:57.670Z,40.33
2022-08-17T07:02:52.792Z,40.39
2022-08-17T07:05:24.301Z,40.40
2022-08-17T07:08:02.814Z,40.50
2022-08-17T07:10:36.457Z,40.25
2022-08-17T07:13:21.592Z,40.33
2022-08-17T07:15:56.964Z,40.47
2022-08-17T07:18:26.926Z,40.38
2022-08-17T07:20:59.824Z,40.17
2022-08-17T07:23:40.028Z,40.25
2022-08-17T07:26:09.058Z,40.27
2022-08-17T07:28:38.542Z,40.38
2022-08-17T07:31:05.244Z,40.31
2022-08-17T07:33:34.607Z,40.25
2022-08-17T07:36:01.592Z,40.35
2022-08-17T07:38:31.449Z,40.38
2022-08-17T07:40:58.107Z,40.48
2022-08-17T07:43:29.642Z,40.54
2022-08-17T07:46:19.277Z,40.43
2022-08-17T07:48:54.641Z,40.20
2022-08-17T07:51:29.430Z,40.41
2022-08-17T07:54:13.527Z,40.25
2022-08-17T07:56:48.578Z,40.24
2022-08-17T07:59:33.250Z,40.02
2022-08-17T08:02:08.048Z,40.25
2022-08-17T08:05:00.723Z,40.16
2022-08-17T08:07:39.651Z,40.16
2022-08-17T08:10:27.679Z,40.41
2022-08-17T08:13:14.473Z,39.97
2022-08-17T08:15:54.327Z,40.19
2022-08-17T08:18:54.532Z,40.24
2022-08-17T08:21:29.095Z,40.12
2022-08-17T08:24:00.084Z,40.27
2022-08-17T08:26:55.407Z,40.14
2022-08-17T08:29:37.937Z,40.15
2022-08-17T08:32:30.315Z,39.96
2022-08-17T08:35:06.544Z,40.11
2022-08-17T08:37:43.165Z,40.01
2022-08-17T08:40:40.783Z,40.31
2022-08-17T08:43:10.245Z,40.20
2022-08-17T08:45:48.779Z,40.03
2022-08-17T08:48:55.909Z,40.07
2022-08-17T08:51:36.175Z,39.96
2022-08-17T08:54:26.983Z,40.03
2022-08-17T09:00:14.657Z,40.13
2022-08-17T09:02:59.240Z,40.22
2022-08-17T09:05:56.796Z,40.00
2022-08-17T09:08:42.592Z,39.83
2022-08-17T09:11:35.574Z,39.88
2022-08-17T09:14:31.294Z,40.08
2022-08-17T09:17:14.932Z,40.02
2022-08-17T09:20:01.064Z,40.02
2022-08-17T09:22:34.346Z,39.97
2022-08-17T09:25:08.431Z,40.05
2022-08-17T09:28:00.662Z,39.93
2022-08-17T09:30:36.193Z,39.63
2022-08-17T09:33:07.689Z,39.86
2022-08-17T09:35:55.510Z,39.79
2022-08-17T09:38:35.124Z,39.97
2022-08-17T09:41:16.313Z,39.88
2022-08-17T09:43:52.995Z,39.72
2022-08-17T09:46:25.256Z,39.72
2022-08-17T09:49:07.536Z,39.53
2022-08-17T09:51:57.355Z,39.82
2022-08-17T09:54:44.686Z,39.79
2022-08-17T09:57:30.289Z,39.62
2022-08-17T10:00:09.343Z,39.69
2022-08-17T10:02:54.512Z,39.78
2022-08-17T10:05:39.978Z,39.45
2022-08-17T10:08:32.095Z,39.42
2022-08-17T10:11:10.935Z,39.65
2022-08-17T10:13:54.812Z,39.75
2022-08-17T10:16:38.330Z,39.66
2022-08-17T10:19:13.802Z,39.57
2022-08-17T10:22:14.627Z,39.65
2022-08-17T10:25:22.524Z,39.56
2022-08-17T10:27:59.194Z,39.20
2022-08-17T10:30:30.848Z,39.35
2022-08-17T10:33:04.743Z,39.52
2022-08-17T10:35:40.258Z,39.54
2022-08-17T10:38:41.680Z,39.51
2022-08-17T10:41:40.693Z,39.61
2022-08-17T10:44:40.716Z,39.64
2022-08-17T10:47:11.294Z,39.14
2022-08-17T10:49:53.532Z,39.46
2022-08-17T10:52:19.917Z,39.04
2022-08-17T10:54:58.398Z,39.21
2022-08-17T10:57:34.361Z,39.04
2022-08-17T11:00:10.209Z,39.08
2022-08-17T11:02:54.919Z,39.37
2022-08-17T11:05:43.786Z,39.14
2022-08-17T11:08:19.575Z,39.39
2022-08-17T11:10:52.155Z,39.26
2022-08-17T11:13:28.037Z,39.19
2022-08-17T11:16:26.342Z,38.91
2022-08-17T11:19:11.677Z,38.83
2022-08-17T11:21:52.615Z,39.08
2022-08-17T11:24:24.121Z,39.08
2022-08-17T11:27:09.188Z,38.87
2022-08-17T11:29:53.672Z,38.89
2022-08-17T11:32:27.326Z,38.88
2022-08-17T11:35:06.683Z,39.03
2022-08-17T11:37:46.457Z,38.82
2022-08-17T11:40:38.550Z,38.85
2022-08-17T11:43:43.351Z,38.75
2022-08-17T11:46:15.164Z,38.76
2022-08-17T11:49:27.476Z,39.19
2022-08-17T11:52:10.233Z,39.06
2022-08-17T11:54:47.968Z,39.16
2022-08-17T11:57:26.561Z,38.90
2022-08-17T11:59:58.809Z,39.16
2022-08-17T12:02:31.767Z,38.86
2022-08-17T12:05:14.411Z,38.73
2022-08-17T12:07:59.188Z,39.08
2022-08-17T12:10:32.490Z,38.75
2022-08-17T12:13:05.719Z,39.01
2022-08-17T12:15:37.219Z,38.74
2022-08-17T12:18:03.756Z,39.08
2022-08-17T12:20:35.295Z,38.85
2022-08-17T12:23:25.586Z,39.13
2022-08-17T12:26:00.935Z,39.04
2022-08-17T12:28:30.681Z,39.00
2022-08-17T12:31:11.977Z,38.80
2022-08-17T12:33:43.832Z,38.86
2022-08-17T12:36:15.116Z,38.77
2022-08-17T12:38:50.552Z,38.72
2022-08-17T12:41:30.844Z,38.41
2022-08-17T12:44:05.789Z,38.45
2022-08-17T12:46:46.494Z,38.71
2022-08-17T12:49:29.911Z,38.81
2022-08-17T12:52:19.210Z,38.78
2022-08-17T12:54:48.304Z,38.41
2022-08-17T12:57:37.079Z,38.68
2022-08-17T13:00:33.083Z,38.56
2022-08-17T13:03:03.278Z,38.01
2022-08-17T13:05:37.142Z,37.97
2022-08-17T13:08:16.931Z,38.11
2022-08-17T13:10:53.637Z,37.88
2022-08-17T13:13:23.360Z,37.81
2022-08-17T13:15:58.063Z,38.01
2022-08-17T13:18:36.429Z,38.06
2022-08-17T13:21:02.948Z,37.83
2022-08-17T13:23:31.374Z,38.14
2022-08-17T13:26:05.934Z,37.62
2022-08-17T13:28:36.197Z,38.18
2022-08-17T13:31:32.225Z,37.64
2022-08-17T13:34:17.186Z,38.00
2022-08-17T13:36:46.997Z,37.94
2022-08-17T13:39:25.196Z,37.59
2022-08-17T13:41:55.413Z,37.92
2022-08-17T13:44:32.375Z,37.58
2022-08-17T13:46:59.844Z,37.56
2022-08-17T13:49:41.898Z,37.60
2022-08-17T13:52:37.910Z,37.71
2022-08-17T13:55:15.422Z,37.70
2022-08-17T13:57:46.589Z,37.73
2022-08-17T14:00:31.672Z,37.66
2022-08-17T14:03:00.154Z,37.43
2022-08-17T14:05:27.059Z,37.57
2022-08-17T14:08:00.656Z,37.71
2022-08-17T14:10:28.313Z,37.56
2022-08-17T14:12:54.802Z,37.72
2022-08-17T14:15:25.075Z,36.83
2022-08-17T14:18:11.552Z,36.85
2022-08-17T14:20:39.803Z,36.91
2022-08-17T14:23:08.233Z,37.20
2022-08-17T14:25:34.744Z,37.04
2022-08-17T14:28:01.822Z,37.29
2022-08-17T14:30:29.974Z,36.97
2022-08-17T14:32:57.987Z,37.11
2022-08-17T14:35:27.418Z,37.06
2022-08-17T14:37:54.206Z,37.05
2022-08-17T14:40:24.962Z,37.26
2022-08-17T14:42:54.281Z,37.00
2022-08-17T14:45:29.850Z,37.09
2022-08-17T14:48:00.295Z,36.90
2022-08-17T14:50:27.162Z,37.07
2022-08-17T14:52:56.008Z,37.35
2022-08-17T14:55:24.727Z,37.21
2022-08-17T14:57:51.373Z,37.09
2022-08-17T15:00:18.027Z,37.04
2022-08-17T15:02:53.802Z,37.18
2022-08-17T15:05:23.236Z,37.34
2022-08-17T15:07:49.892Z,37.17
2022-08-17T15:10:17.678Z,36.94
2022-08-17T15:12:44.193Z,37.25
2022-08-17T15:15:13.945Z,37.15
2022-08-17T15:17:45.234Z,37.05
2022-08-17T15:20:18.470Z,37.44
2022-08-17T15:22:46.682Z,37.14
2022-08-17T15:25:13.942Z,37.04
2022-08-17T15:27:40.770Z,37.34
2022-08-17T15:30:08.943Z,37.31
2022-08-17T15:32:38.726Z,36.78
2022-08-17T15:35:07.079Z,37.36
2022-08-17T15:37:33.583Z,36.99
2022-08-17T15:40:03.560Z,37.06
2022-08-17T15:42:30.186Z,37.03
2022-08-17T15:44:56.768Z,37.28
2022-08-17T15:47:23.299Z,37.40
2022-08-17T15:49:50.825Z,37.04
2022-08-17T15:52:24.439Z,37.66
2022-08-17T15:55:00.749Z,37.06
2022-08-17T15:57:28.070Z,37.38
2022-08-17T15:59:58.930Z,37.10
2022-08-17T16:03:14.597Z,38.01
2022-08-17T16:05:24.770Z,38.42
2022-08-17T16:07:52.182Z,38.95
2022-08-17T16:10:19.558Z,38.93
2022-08-17T16:12:47.758Z,38.98
2022-08-17T16:15:15.179Z,38.51
2022-08-17T16:17:41.612Z,38.52
2022-08-17T16:20:20.554Z,38.49
2022-08-17T16:22:48.976Z,38.46
2022-08-17T16:25:19.870Z,38.87
2022-08-17T16:27:49.128Z,38.27
2022-08-17T16:30:17.608Z,38.47
2022-08-17T16:32:44.574Z,38.05
2022-08-17T16:35:17.233Z,37.87
2022-08-17T16:37:45.607Z,37.78
2022-08-17T16:40:14.576Z,38.19
2022-08-17T16:42:43.186Z,37.75
2022-08-17T16:45:13.428Z,37.30
2022-08-17T16:47:41.759Z,37.73
2022-08-17T16:50:10.196Z,36.93
2022-08-17T16:52:37.604Z,36.59
2022-08-17T16:55:07.595Z,36.46
2022-08-17T16:57:34.987Z,36.57
2022-08-17T17:00:01.457Z,36.77
2022-08-17T17:02:36.760Z,37.26
2022-08-17T17:05:13.771Z,36.95
2022-08-17T17:07:56.235Z,36.84
2022-08-17T17:10:32.233Z,37.02
2022-08-17T17:13:03.953Z,37.25
2022-08-17T17:16:06.114Z,37.02
2022-08-17T17:19:01.666Z,36.26
2022-08-17T17:21:42.477Z,36.46
2022-08-17T17:24:18.499Z,36.64
2022-08-17T17:27:02.519Z,36.27
2022-08-17T17:29:49.216Z,36.73
2022-08-17T17:32:32.347Z,36.57
2022-08-17T17:35:08.372Z,36.77
2022-08-17T17:37:35.590Z,37.01
2022-08-17T17:40:12.264Z,37.40
2022-08-17T17:42:43.406Z,36.95
2022-08-17T17:45:16.793Z,36.98
2022-08-17T17:47:44.582Z,36.89
2022-08-17T17:50:11.242Z,36.50
2022-08-17T17:52:55.447Z,36.67
2022-08-17T17:55:47.081Z,36.97
2022-08-17T17:58:27.432Z,36.50
2022-08-17T18:01:09.072Z,36.41
2022-08-17T18:03:50.708Z,36.43
2022-08-17T18:06:54.154Z,36.63
2022-08-17T18:09:53.707Z,36.86
2022-08-17T18:12:43.413Z,36.07
2022-08-17T18:15:25.035Z,36.13
2022-08-17T18:18:26.188Z,36.24
2022-08-17T18:21:04.566Z,36.43
2022-08-17T18:23:31.134Z,37.88
2022-08-17T18:25:58.638Z,37.67
2022-08-17T18:28:27.023Z,38.08
2022-08-17T18:31:21.851Z,38.18
2022-08-17T18:34:36.117Z,37.84
2022-08-17T18:37:05.036Z,37.45
2022-08-17T18:39:31.615Z,37.56
2022-08-17T18:42:00.598Z,37.79
2022-08-17T18:44:37.414Z,36.93
2022-08-17T18:47:15.910Z,37.23
2022-08-17T18:49:45.441Z,37.98
2022-08-17T18:52:16.836Z,37.38
2022-08-17T18:55:05.597Z,36.83
2022-08-17T18:57:48.737Z,37.29
2022-08-17T19:00:19.932Z,37.82
2022-08-17T19:02:53.803Z,37.41
2022-08-17T19:05:42.171Z,37.67
2022-08-17T19:08:30.135Z,37.64
2022-08-17T19:11:05.743Z,37.41
2022-08-17T19:13:51.010Z,37.37
2022-08-17T19:16:27.430Z,36.96
2022-08-17T19:19:14.405Z,36.62
2022-08-17T19:21:53.271Z,37.22
2022-08-17T19:24:25.268Z,37.36
2022-08-17T19:26:56.807Z,36.80
2022-08-17T19:30:01.635Z,36.72
2022-08-17T19:32:34.220Z,37.13
2022-08-17T19:35:02.772Z,36.77
2022-08-17T19:37:49.480Z,36.62
2022-08-17T19:40:52.912Z,36.68
2022-08-17T19:43:49.440Z,36.87
2022-08-17T19:46:19.797Z,37.11
2022-08-17T19:49:04.295Z,36.99
2022-08-17T19:51:40.882Z,37.48
2022-08-17T19:54:30.975Z,37.24
2022-08-17T19:57:24.539Z,36.98
2022-08-17T19:59:59.996Z,37.15
2022-08-17T20:03:05.896Z,36.93
2022-08-17T20:06:01.011Z,36.78
2022-08-17T20:08:29.595Z,36.90
2022-08-17T20:11:25.244Z,37.35
2022-08-17T20:14:04.448Z,37.29
2022-08-17T20:16:33.288Z,37.33
2022-08-17T20:19:29.587Z,37.36
2022-08-17T20:22:11.895Z,37.34
2022-08-17T20:24:50.381Z,37.51
2022-08-17T20:27:31.576Z,37.52
2022-08-17T20:30:11.700Z,37.52
2022-08-17T20:32:48.350Z,37.65
2022-08-17T20:35:16.803Z,37.61
2022-08-17T20:37:52.905Z,37.51
2022-08-17T20:40:24.220Z,37.13
2022-08-17T20:42:53.253Z,37.54
2022-08-17T20:45:26.090Z,37.33
2022-08-17T20:48:36.119Z,37.43
2022-08-17T20:51:27.276Z,37.35
2022-08-17T20:53:53.701Z,37.48
2022-08-17T20:56:51.728Z,37.25
2022-08-17T20:59:21.183Z,37.12
2022-08-17T21:02:07.222Z,37.26
2022-08-17T21:05:00.131Z,37.45
2022-08-17T21:07:50.553Z,37.66
2022-08-17T21:10:19.451Z,37.24
2022-08-17T21:12:58.598Z,37.07
2022-08-17T21:15:39.396Z,37.41
2022-08-17T21:18:09.543Z,37.70
2022-08-17T21:21:02.387Z,37.53
2022-08-17T21:23:55.445Z,37.65
2022-08-17T21:26:53.757Z,37.69
2022-08-17T21:29:31.375Z,37.26
2022-08-17T21:31:59.443Z,37.47
2022-08-17T21:34:27.776Z,37.61
2022-08-17T21:36:56.596Z,37.68
2022-08-17T21:39:33.429Z,37.34
2022-08-17T21:42:00.544Z,37.63
2022-08-17T21:44:47.507Z,37.81
2022-08-17T21:47:24.508Z,37.43
2022-08-17T21:49:52.710Z,37.56
2022-08-17T21:52:23.303Z,37.77
2022-08-17T21:54:49.715Z,37.47
2022-08-17T21:57:20.915Z,37.35
2022-08-17T21:59:53.396Z,37.59
2022-08-17T22:02:23.943Z,37.48
2022-08-17T22:05:10.209Z,37.94
2022-08-17T22:07:50.525Z,37.35
2022-08-17T22:10:34.293Z,37.82
2022-08-17T22:13:16.537Z,37.75
2022-08-17T22:15:46.859Z,37.80
2022-08-17T22:18:21.791Z,37.75
2022-08-17T22:20:50.583Z,37.83
2022-08-17T22:23:49.863Z,37.42
2022-08-17T22:26:18.742Z,37.77
2022-08-17T22:28:56.351Z,37.43
2022-08-17T22:31:49.817Z,37.59
2022-08-17T22:34:16.859Z,37.76
2022-08-17T22:36:43.539Z,37.36
2022-08-17T22:39:09.937Z,37.62
2022-08-17T22:42:02.390Z,37.54
2022-08-17T22:44:32.317Z,37.93
2022-08-17T22:47:02.095Z,37.51
2022-08-17T22:49:53.991Z,37.71
2022-08-17T22:52:56.598Z,37.42
2022-08-17T22:55:42.147Z,37.56
2022-08-17T22:58:37.208Z,37.30
2022-08-17T23:01:22.571Z,37.31
2022-08-17T23:04:01.898Z,37.34
2022-08-17T23:06:29.345Z,37.29
2022-08-17T23:08:56.593Z,37.85
2022-08-17T23:11:42.801Z,37.33
2022-08-17T23:14:16.058Z,37.77
2022-08-17T23:16:42.819Z,37.67
2022-08-17T23:19:16.014Z,37.58
2022-08-17T23:21:46.445Z,37.42
2022-08-17T23:24:19.643Z,37.32
2022-08-17T23:26:46.107Z,37.25
2022-08-17T23:29:12.612Z,37.78
2022-08-17T23:31:39.892Z,37.27
2022-08-17T23:34:13.280Z,37.40
2022-08-17T23:36:40.092Z,37.24
2022-08-17T23:39:07.476Z,37.33
2022-08-17T23:41:38.314Z,37.61
2022-08-17T23:44:06.323Z,37.32
2022-08-17T23:46:34.403Z,37.69
2022-08-17T23:49:00.992Z,37.08
2022-08-17T23:51:35.576Z,37.48
2022-08-17T23:54:11.578Z,37.50
2022-08-17T23:56:47.538Z,37.17
2022-08-17T23:59:16.154Z,37.41
